UKLU

Details ICAO UKLU (UDJ)
Name UZHHOROD INTL
Region Ukraine
Timezone Europe/Uzhgorod (UTC+3.0)
Plans Departing 13
Arriving 19
Stats Elevation 383 ft / 117 m (AMSL)
Location 48.634278° 22.263355°
Runways 1
Magnetic Variation 5.595° E
Sunrise 2018-05-25 02:40:20 UTC / 2018-05-25 05:40:20 Local
Sunset 2018-05-25 18:18:17 UTC / 2018-05-25 21:18:17 Local
Advertisement - Login to hide

Runways

ID Width Length Bearing (true) Bearing (mag) Surface Threshold Offset Overrun Length
10 131 ft / 40 m 6,682 ft / 2,037 m 103.38° 97.79° Concrete 0 ft / 0 m 0 ft / 0 m
28 131 ft / 40 m 6,682 ft / 2,037 m 283.40° 277.81° Concrete 1,765 ft / 538 m 0 ft / 0 m

Map

Weather


0- 5 10 15 20 25 30 35+ Temperature / ° C

Clouds and Precipitation
Forecast for 2018-05-25 12:00 UTC. Updated 9 minutes ago

Ground ~20,000 ft ~40,000 ft Winds

METAR

UKLU 250900Z 25003MPS 210V290 9999 BKN045 23/13 Q1017 R10/090070 NOSIG

TAF

Not found

Frequencies

Tower 134.50 MHz TWR
Approach 121.90 MHz APP
Warning: Do not use this data for real-world aviation or navigation. No guarantee of current accuracy is given.